ADDS METAR Data INFO
IDs: Format: Raw Decoded Include TAF

Data at: 2257 UTC 16 Jan 2018

KONM 162235Z AUTO 10003KT 10SM CLR 04/M10 A3039 RMK AO2 T00401098
KONM 162215Z AUTO 15003KT 10SM CLR 04/M10 A3039 RMK AO2 T00401101
KONM 162155Z AUTO 16004KT 10SM CLR 04/M10 A3041 RMK AO2 T00391101
KONM 162135Z AUTO 12003KT 10SM CLR 04/M09 A3041 RMK AO2 T00351095
KONM 162115Z AUTO 00000KT 10SM CLR 03/M10 A3042 RMK AO2 T00331103
KONM 162055Z AUTO 17004KT 10SM CLR 03/M10 A3042 RMK AO2 T00311105
KONM 162035Z AUTO 00000KT 10SM CLR 03/M11 A3043 RMK AO2 T00271108
KONM 162015Z AUTO 17003KT 10SM CLR 02/M11 A3044 RMK AO2 T00201110
KONM 161955Z AUTO 00000KT 10SM CLR 02/M11 A3045 RMK AO2 T00181111
KONM 161935Z AUTO 32003KT 10SM CLR 01/M12 A3047 RMK AO2 T00091116
KONM 161915Z AUTO 00000KT 10SM CLR 01/M12 A3048 RMK AO2 T00111119
KONM 161855Z AUTO 00000KT 10SM CLR 00/M12 A3049 RMK AO2 T00011121
KONM 161835Z AUTO 00000KT 10SM CLR 00/M12 A3050 RMK AO2 T00011123
KONM 161815Z AUTO 00000KT 10SM CLR 00/M12 A3051 RMK AO2 T10041125
KONM 161755Z AUTO 34004KT 10SM CLR M01/M13 A3052 RMK AO2 T10061127 11006 21060
KONM 161735Z AUTO 36005KT 10SM SCT041 M01/M13 A3053 RMK AO2 T10101130
KONM 161715Z AUTO 35006KT 10SM SCT041 M01/M13 A3054 RMK AO2 T10151131
KONM 161655Z AUTO 34006KT 10SM CLR M02/M13 A3053 RMK AO2 T10171130
KONM 161635Z AUTO 35007KT 10SM SCT044 M02/M13 A3053 RMK AO2 T10221130
KONM 161615Z AUTO 35007KT 10SM CLR M03/M13 A3053 RMK AO2 T10271135
KONM 161555Z AUTO 35009KT 10SM CLR M03/M13 A3051 RMK AO2 T10331135
KONM 161535Z AUTO 34009KT 10SM CLR M04/M13 A3050 RMK AO2 T10361135
KONM 161515Z AUTO 36009KT 10SM CLR M04/M13 A3050 RMK AO2 T10431133
KONM 161455Z AUTO 35007KT 10SM CLR M05/M13 A3049 RMK AO2 T10511132
KONM 161435Z AUTO 34006KT 10SM CLR M06/M13 A3048 RMK AO2 T10571135
KONM 161415Z AUTO 34007KT 10SM CLR M06/M13 A3048 RMK AO2 T10581135
KONM 161355Z AUTO 34008KT 10SM CLR M05/M13 A3047 RMK AO2 T10551132
KONM 161335Z AUTO 33009G14KT 10SM CLR M05/M13 A3046 RMK AO2 T10531130
KONM 161315Z AUTO 33010KT 10SM CLR M05/M12 A3046 RMK AO2 T10501124
KONM 161255Z AUTO 35009KT 10SM CLR M05/M12 A3046 RMK AO2 T10481118
KONM 161235Z AUTO 34007KT 10SM CLR M05/M11 A3045 RMK AO2 T10481115
KONM 161215Z AUTO 35005KT 10SM CLR M05/M11 A3044 RMK AO2 T10471112
KONM 161155Z AUTO 34007KT 10SM CLR M05/M11 A3044 RMK AO2 T10461111 11011 21061
KONM 161135Z AUTO 34006KT 10SM CLR M05/M11 A3044 RMK AO2 T10461110
KONM 161115Z AUTO 35006KT 10SM CLR M05/M11 A3044 RMK AO2 T10491108
KONM 161055Z AUTO 28004KT 10SM CLR M04/M10 A3044 RMK AO2 T10411105
KONM 161035Z AUTO 35008KT 10SM CLR M04/M10 A3044 RMK AO2 T10441105
KONM 161015Z AUTO 01003KT 10SM CLR M05/M10 A3044 RMK AO2 T10471100
KONM 160955Z AUTO 00000KT 10SM CLR M05/M09 A3044 RMK AO2 T10501093
KONM 160935Z AUTO 00000KT 10SM CLR M05/M10 A3044 RMK AO2 T10541096
KONM 160915Z AUTO 25004KT 10SM CLR M05/M09 A3044 RMK AO2 T10551095
KONM 160855Z AUTO 00000KT 10SM CLR M06/M10 A3044 RMK AO2 T10571097
KONM 160835Z AUTO 21003KT 10SM SCT032 M05/M09 A3043 RMK AO2 T10541094
KONM 160815Z AUTO 00000KT 10SM SCT032 M04/M08 A3043 RMK AO2 T10381085
KONM 160755Z AUTO 04003KT 10SM SCT029 M02/M08 A3043 RMK AO2 T10231077
KONM 160735Z AUTO 01005KT 10SM BKN031 M02/M08 A3043 RMK AO2 T10231076
KONM 160715Z AUTO 33006KT 10SM SCT031 M03/M07 A3042 RMK AO2 T10261073
KONM 160655Z AUTO 07004KT 10SM CLR M02/M07 A3042 RMK AO2 T10191072
KONM 160635Z AUTO 10006KT 10SM CLR M01/M07 A3042 RMK AO2 T10151071
KONM 160615Z AUTO 03005KT 10SM CLR M01/M07 A3040 RMK AO2 T10121066
KONM 160555Z AUTO 08004KT 10SM CLR M01/M07 A3039 RMK AO2 T10131066 10075 21024 401421025
KONM 160535Z AUTO 21003KT 10SM CLR M02/M07 A3039 RMK AO2 T10201069
KONM 160515Z AUTO 23004KT 10SM CLR M02/M07 A3037 RMK AO2 T10201066
KONM 160455Z AUTO 23003KT 10SM CLR M02/M07 A3036 RMK AO2 T10201066
KONM 160435Z AUTO 00000KT 10SM CLR 00/M06 A3035 RMK AO2 T10011058
KONM 160415Z AUTO 00000KT 10SM CLR 00/M06 A3035 RMK AO2 T10041060
KONM 160355Z AUTO 15004KT 10SM CLR 00/M06 A3034 RMK AO2 T00001057
KONM 160335Z AUTO 13003KT 10SM CLR 01/M05 A3033 RMK AO2 T00051054
KONM 160315Z AUTO 08007KT 10SM CLR 01/M05 A3032 RMK AO2 T00071051
KONM 160255Z AUTO 08003KT 10SM CLR 01/M05 A3031 RMK AO2 T00101051
KONM 160235Z AUTO 11004KT 10SM CLR 01/M05 A3030 RMK AO2 T00131051
KONM 160215Z AUTO 12005KT 10SM CLR 02/M05 A3030 RMK AO2 T00171051
KONM 160155Z AUTO 11005KT 10SM CLR 02/M05 A3028 RMK AO2 T00241050
KONM 160135Z AUTO 11008KT 10SM CLR 03/M05 A3027 RMK AO2 T00301050
KONM 160115Z AUTO 08011KT 10SM CLR 04/M05 A3026 RMK AO2 T00391052
KONM 160055Z AUTO 08007KT 10SM CLR 05/M05 A3024 RMK AO2 T00501055
KONM 160035Z AUTO 11008KT 10SM CLR 06/M05 A3023 RMK AO2 T00611055
KONM 160015Z AUTO 10004KT 10SM CLR 07/M05 A3022 RMK AO2 T00671055
KONM 152355Z AUTO 00000KT 10SM CLR 08/M05 A3021 RMK AO2 T00751055 10142 20066
KONM 152335Z AUTO 09007KT 10SM CLR 09/M06 A3019 RMK AO2 T00871056
KONM 152315Z AUTO 10010G17KT 10SM CLR 10/M05 A3018 RMK AO2 T00981055
KONM 152255Z AUTO 10014G20KT 10SM CLR 11/M05 A3017 RMK AO2 T01071055
KONM 152235Z AUTO 11013G20KT 10SM CLR 13/M05 A3016 RMK AO2 T01251054
KONM 152215Z AUTO 08015G19KT 10SM CLR 14/M06 A3015 RMK AO2 T01411065
KONM 152155Z AUTO 32003KT 10SM CLR 14/M07 A3014 RMK AO2 T01381068
KONM 152140Z AUTO 32005KT 10SM CLR 14/M07 A3015 RMK AO2 T01351070
KONM 152115Z AUTO 33006KT 10SM CLR 12/M07 A3015 RMK AO2 T01231069
KONM 152055Z AUTO 35007KT 10SM CLR 11/M07 A3016 RMK AO2 T01121070
KONM 152035Z AUTO 33006KT 10SM CLR 10/M07 A3017 RMK AO2 T01031070
KONM 152015Z AUTO 01007KT 10SM CLR 11/M07 A3017 RMK AO2 T01061070
KONM 151955Z AUTO 36007KT 10SM CLR 11/M07 A3018 RMK AO2 T01141069
KONM 151935Z AUTO 36007KT 10SM CLR 11/M07 A3019 RMK AO2 T01061068
KONM 151915Z AUTO 36010KT 10SM CLR 10/M07 A3021 RMK AO2 T01001070
KONM 151855Z AUTO 36009KT 10SM CLR 09/M07 A3022 RMK AO2 T00921070
KONM 151835Z AUTO 34006KT 10SM CLR 08/M07 A3023 RMK AO2 T00821072
KONM 151815Z AUTO 36010KT 10SM CLR 07/M08 A3025 RMK AO2 T00721076
KONM 151755Z AUTO 35007KT 10SM CLR 06/M07 A3026 RMK AO2 T00641074 10064 21025
KONM 151735Z AUTO 36008KT 10SM CLR 05/M08 A3026 RMK AO2 T00511076
KONM 151715Z AUTO 35009G14KT 10SM CLR 05/M08 A3027 RMK AO2 T00461077
KONM 151655Z AUTO 36008KT 10SM CLR 04/M08 A3027 RMK AO2 T00381077
KONM 151635Z AUTO 35010KT 10SM CLR 03/M08 A3027 RMK AO2 T00291077
KONM 151615Z AUTO 34007KT 10SM CLR 02/M08 A3026 RMK AO2 T00201080
KONM 151555Z AUTO 33007KT 10SM CLR 02/M08 A3026 RMK AO2 T00161080
KONM 151535Z AUTO 33006KT 10SM CLR 01/M08 A3025 RMK AO2 T00091082
KONM 151515Z AUTO 33007KT 10SM CLR 00/M08 A3024 RMK AO2 T00031084
KONM 151455Z AUTO 32007KT 10SM CLR M01/M09 A3024 RMK AO2 T10061086
KONM 151435Z AUTO 32007KT 10SM CLR M02/M09 A3023 RMK AO2 T10201090
KONM 151415Z AUTO 31007KT 10SM CLR M02/M09 A3023 RMK AO2 T10201090
KONM 151355Z AUTO 32007KT 10SM CLR M01/M09 A3023 RMK AO2 T10131088
KONM 151335Z AUTO 31007KT 10SM CLR M01/M09 A3023 RMK AO2 T10111088
KONM 151315Z AUTO 31008KT 10SM CLR M02/M09 A3023 RMK AO2 T10211091
KONM 151255Z AUTO 32007KT 10SM CLR M02/M09 A3022 RMK AO2 T10251092
KONM 151235Z AUTO 35006KT 10SM CLR M01/M09 A3022 RMK AO2 T10151090
KONM 151215Z AUTO 35006KT 10SM CLR M02/M09 A3023 RMK AO2 T10181090
KONM 151155Z AUTO 33005KT 10SM CLR M01/M09 A3023 RMK AO2 T10141090 10030 21017
KONM 151135Z AUTO 34005KT 10SM CLR 00/M09 A3023 RMK AO2 T10031089
KONM 151115Z AUTO 32007KT 10SM CLR 00/M08 A3023 RMK AO2 T00011085